sensor_id;sensor_type;location;lat;lon;timestamp;P1;durP1;ratioP1;P2;durP2;ratioP2
545;SDS011;259;53.304;9.816;2022-11-09T00:00:31;0.80;;;0.80;;
545;SDS011;259;53.304;9.816;2022-11-09T00:02:56;1.23;;;1.13;;
545;SDS011;259;53.304;9.816;2022-11-09T00:05:22;0.90;;;0.90;;
545;SDS011;259;53.304;9.816;2022-11-09T00:07:47;1.30;;;1.20;;
545;SDS011;259;53.304;9.816;2022-11-09T00:10:13;0.93;;;0.93;;
545;SDS011;259;53.304;9.816;2022-11-09T00:12:39;1.00;;;0.90;;
545;SDS011;259;53.304;9.816;2022-11-09T00:15:05;1.27;;;1.03;;
545;SDS011;259;53.304;9.816;2022-11-09T00:17:30;1.13;;;1.10;;
545;SDS011;259;53.304;9.816;2022-11-09T00:19:56;1.00;;;0.90;;
545;SDS011;259;53.304;9.816;2022-11-09T00:22:21;1.10;;;1.00;;
545;SDS011;259;53.304;9.816;2022-11-09T00:24:47;0.90;;;0.90;;
545;SDS011;259;53.304;9.816;2022-11-09T00:27:13;1.10;;;1.07;;
545;SDS011;259;53.304;9.816;2022-11-09T00:29:38;1.07;;;1.07;;
545;SDS011;259;53.304;9.816;2022-11-09T00:32:04;1.20;;;1.10;;
545;SDS011;259;53.304;9.816;2022-11-09T00:34:29;0.80;;;0.80;;
545;SDS011;259;53.304;9.816;2022-11-09T00:36:55;1.07;;;0.97;;
545;SDS011;259;53.304;9.816;2022-11-09T00:39:21;1.27;;;1.10;;
545;SDS011;259;53.304;9.816;2022-11-09T00:41:46;0.90;;;0.87;;
545;SDS011;259;53.304;9.816;2022-11-09T00:44:12;1.27;;;1.17;;
545;SDS011;259;53.304;9.816;2022-11-09T00:46:37;1.40;;;1.30;;
545;SDS011;259;53.304;9.816;2022-11-09T00:49:03;0.93;;;0.90;;
545;SDS011;259;53.304;9.816;2022-11-09T00:51:28;1.20;;;1.10;;
545;SDS011;259;53.304;9.816;2022-11-09T00:53:54;1.10;;;1.00;;
545;SDS011;259;53.304;9.816;2022-11-09T00:56:21;1.30;;;0.88;;
545;SDS011;259;53.304;9.816;2022-11-09T00:58:47;1.10;;;1.10;;
545;SDS011;259;53.304;9.816;2022-11-09T01:01:19;1.00;;;1.00;;
545;SDS011;259;53.304;9.816;2022-11-09T01:03:45;1.07;;;0.97;;
545;SDS011;259;53.304;9.816;2022-11-09T01:06:15;1.40;;;1.30;;
545;SDS011;259;53.304;9.816;2022-11-09T01:08:43;1.30;;;1.00;;
545;SDS011;259;53.304;9.816;2022-11-09T01:11:09;1.03;;;0.93;;
545;SDS011;259;53.304;9.816;2022-11-09T01:13:36;1.33;;;1.23;;
545;SDS011;259;53.304;9.816;2022-11-09T01:16:06;0.97;;;0.97;;
545;SDS011;259;53.304;9.816;2022-11-09T01:18:33;1.20;;;1.20;;
545;SDS011;259;53.304;9.816;2022-11-09T01:21:00;1.13;;;1.03;;
545;SDS011;259;53.304;9.816;2022-11-09T01:23:27;0.93;;;0.93;;
545;SDS011;259;53.304;9.816;2022-11-09T01:25:57;0.90;;;0.90;;
545;SDS011;259;53.304;9.816;2022-11-09T01:28:23;1.13;;;1.13;;
545;SDS011;259;53.304;9.816;2022-11-09T01:30:49;1.00;;;1.00;;
545;SDS011;259;53.304;9.816;2022-11-09T01:33:14;1.43;;;1.33;;
545;SDS011;259;53.304;9.816;2022-11-09T01:35:40;1.30;;;1.20;;
545;SDS011;259;53.304;9.816;2022-11-09T01:38:06;0.93;;;0.90;;
545;SDS011;259;53.304;9.816;2022-11-09T01:40:33;0.80;;;0.80;;
545;SDS011;259;53.304;9.816;2022-11-09T01:43:16;0.90;;;0.90;;
545;SDS011;259;53.304;9.816;2022-11-09T01:48:22;1.10;;;1.03;;
545;SDS011;259;53.304;9.816;2022-11-09T01:51:48;1.00;;;0.90;;
545;SDS011;259;53.304;9.816;2022-11-09T01:54:15;0.83;;;0.83;;
545;SDS011;259;53.304;9.816;2022-11-09T01:56:44;1.17;;;1.07;;
545;SDS011;259;53.304;9.816;2022-11-09T01:59:14;1.00;;;0.93;;
545;SDS011;259;53.304;9.816;2022-11-09T02:01:45;0.83;;;0.83;;
545;SDS011;259;53.304;9.816;2022-11-09T02:04:18;1.30;;;1.10;;
545;SDS011;259;53.304;9.816;2022-11-09T02:06:47;0.90;;;0.90;;
545;SDS011;259;53.304;9.816;2022-11-09T02:09:17;1.20;;;1.10;;
545;SDS011;259;53.304;9.816;2022-11-09T02:11:53;0.93;;;0.93;;
545;SDS011;259;53.304;9.816;2022-11-09T02:14:20;1.10;;;1.00;;
545;SDS011;259;53.304;9.816;2022-11-09T02:16:47;1.20;;;1.13;;
545;SDS011;259;53.304;9.816;2022-11-09T02:19:13;1.10;;;1.00;;
545;SDS011;259;53.304;9.816;2022-11-09T02:21:39;1.07;;;0.97;;
545;SDS011;259;53.304;9.816;2022-11-09T02:24:05;0.80;;;0.80;;
545;SDS011;259;53.304;9.816;2022-11-09T02:26:33;1.37;;;1.27;;
545;SDS011;259;53.304;9.816;2022-11-09T02:29:04;1.03;;;0.97;;
545;SDS011;259;53.304;9.816;2022-11-09T02:31:34;0.80;;;0.80;;
545;SDS011;259;53.304;9.816;2022-11-09T02:34:05;0.87;;;0.83;;
545;SDS011;259;53.304;9.816;2022-11-09T02:36:34;1.20;;;1.10;;
545;SDS011;259;53.304;9.816;2022-11-09T02:39:00;1.40;;;1.30;;
545;SDS011;259;53.304;9.816;2022-11-09T02:41:26;1.10;;;1.00;;
545;SDS011;259;53.304;9.816;2022-11-09T02:43:54;1.33;;;1.23;;
545;SDS011;259;53.304;9.816;2022-11-09T02:46:24;1.00;;;1.00;;
545;SDS011;259;53.304;9.816;2022-11-09T02:48:55;0.97;;;0.83;;
545;SDS011;259;53.304;9.816;2022-11-09T02:51:20;1.27;;;1.17;;
545;SDS011;259;53.304;9.816;2022-11-09T02:53:46;1.13;;;1.10;;
545;SDS011;259;53.304;9.816;2022-11-09T02:56:11;0.90;;;0.80;;
545;SDS011;259;53.304;9.816;2022-11-09T02:58:37;1.40;;;1.30;;
545;SDS011;259;53.304;9.816;2022-11-09T03:01:02;1.13;;;1.03;;
545;SDS011;259;53.304;9.816;2022-11-09T03:03:28;1.10;;;1.10;;
545;SDS011;259;53.304;9.816;2022-11-09T03:05:53;1.63;;;1.10;;
545;SDS011;259;53.304;9.816;2022-11-09T03:08:19;1.23;;;1.13;;
545;SDS011;259;53.304;9.816;2022-11-09T03:10:44;1.17;;;1.17;;
545;SDS011;259;53.304;9.816;2022-11-09T03:13:10;1.40;;;1.07;;
545;SDS011;259;53.304;9.816;2022-11-09T03:15:35;1.20;;;1.10;;
545;SDS011;259;53.304;9.816;2022-11-09T03:18:02;0.90;;;0.90;;
545;SDS011;259;53.304;9.816;2022-11-09T03:20:28;1.00;;;0.90;;
545;SDS011;259;53.304;9.816;2022-11-09T03:22:59;0.97;;;0.97;;
545;SDS011;259;53.304;9.816;2022-11-09T03:25:25;1.10;;;1.00;;
545;SDS011;259;53.304;9.816;2022-11-09T03:28:01;1.13;;;1.03;;
545;SDS011;259;53.304;9.816;2022-11-09T03:30:29;1.00;;;1.00;;
545;SDS011;259;53.304;9.816;2022-11-09T03:32:56;0.90;;;0.80;;
545;SDS011;259;53.304;9.816;2022-11-09T03:35:23;1.43;;;1.00;;
545;SDS011;259;53.304;9.816;2022-11-09T03:37:49;1.47;;;1.00;;
545;SDS011;259;53.304;9.816;2022-11-09T03:40:14;1.30;;;1.20;;
545;SDS011;259;53.304;9.816;2022-11-09T03:42:43;1.00;;;1.00;;
545;SDS011;259;53.304;9.816;2022-11-09T03:45:10;1.10;;;1.00;;
545;SDS011;259;53.304;9.816;2022-11-09T03:47:40;1.17;;;1.17;;
545;SDS011;259;53.304;9.816;2022-11-09T03:50:09;0.90;;;0.90;;
545;SDS011;259;53.304;9.816;2022-11-09T03:52:36;1.10;;;1.10;;
545;SDS011;259;53.304;9.816;2022-11-09T03:55:03;1.50;;;1.07;;
545;SDS011;259;53.304;9.816;2022-11-09T03:57:29;1.40;;;1.20;;
545;SDS011;259;53.304;9.816;2022-11-09T03:59:55;1.10;;;1.10;;
545;SDS011;259;53.304;9.816;2022-11-09T04:02:21;1.20;;;1.10;;
545;SDS011;259;53.304;9.816;2022-11-09T04:04:46;0.90;;;0.90;;
545;SDS011;259;53.304;9.816;2022-11-09T04:07:12;0.80;;;0.80;;
545;SDS011;259;53.304;9.816;2022-11-09T04:09:37;0.80;;;0.80;;
545;SDS011;259;53.304;9.816;2022-11-09T04:12:03;1.10;;;1.00;;
545;SDS011;259;53.304;9.816;2022-11-09T04:14:29;1.20;;;1.10;;
545;SDS011;259;53.304;9.816;2022-11-09T04:16:55;1.07;;;0.97;;
545;SDS011;259;53.304;9.816;2022-11-09T04:19:20;1.23;;;1.13;;
545;SDS011;259;53.304;9.816;2022-11-09T04:21:46;1.20;;;1.10;;
545;SDS011;259;53.304;9.816;2022-11-09T04:24:11;1.10;;;1.10;;
545;SDS011;259;53.304;9.816;2022-11-09T04:26:37;1.47;;;1.10;;
545;SDS011;259;53.304;9.816;2022-11-09T04:29:02;0.80;;;0.80;;
545;SDS011;259;53.304;9.816;2022-11-09T04:31:28;0.90;;;0.90;;
545;SDS011;259;53.304;9.816;2022-11-09T04:33:53;1.33;;;1.23;;
545;SDS011;259;53.304;9.816;2022-11-09T04:36:19;1.00;;;1.00;;
545;SDS011;259;53.304;9.816;2022-11-09T04:38:45;0.90;;;0.90;;
545;SDS011;259;53.304;9.816;2022-11-09T04:41:10;0.73;;;0.73;;
545;SDS011;259;53.304;9.816;2022-11-09T04:43:36;1.23;;;1.20;;
545;SDS011;259;53.304;9.816;2022-11-09T04:46:01;1.23;;;1.00;;
545;SDS011;259;53.304;9.816;2022-11-09T04:48:28;1.20;;;1.10;;
545;SDS011;259;53.304;9.816;2022-11-09T04:51:00;1.00;;;0.97;;
545;SDS011;259;53.304;9.816;2022-11-09T04:53:28;1.20;;;1.20;;
545;SDS011;259;53.304;9.816;2022-11-09T04:55:54;2.40;;;1.00;;
545;SDS011;259;53.304;9.816;2022-11-09T04:58:19;1.20;;;1.10;;
545;SDS011;259;53.304;9.816;2022-11-09T05:00:45;0.90;;;0.90;;
545;SDS011;259;53.304;9.816;2022-11-09T05:03:10;1.30;;;1.07;;
545;SDS011;259;53.304;9.816;2022-11-09T05:05:36;1.40;;;1.30;;
545;SDS011;259;53.304;9.816;2022-11-09T05:08:04;0.93;;;0.93;;
545;SDS011;259;53.304;9.816;2022-11-09T05:10:30;1.10;;;1.10;;
545;SDS011;259;53.304;9.816;2022-11-09T05:12:57;0.90;;;0.90;;
545;SDS011;259;53.304;9.816;2022-11-09T05:15:23;0.93;;;0.90;;
545;SDS011;259;53.304;9.816;2022-11-09T05:17:50;0.80;;;0.80;;
545;SDS011;259;53.304;9.816;2022-11-09T05:20:15;2.70;;;1.20;;
545;SDS011;259;53.304;9.816;2022-11-09T05:22:41;1.13;;;1.03;;
545;SDS011;259;53.304;9.816;2022-11-09T05:25:25;1.37;;;1.27;;
545;SDS011;259;53.304;9.816;2022-11-09T05:27:51;0.90;;;0.80;;
545;SDS011;259;53.304;9.816;2022-11-09T05:30:17;1.40;;;0.93;;
545;SDS011;259;53.304;9.816;2022-11-09T05:32:42;0.90;;;0.90;;
545;SDS011;259;53.304;9.816;2022-11-09T05:35:08;0.70;;;0.70;;
545;SDS011;259;53.304;9.816;2022-11-09T05:37:34;1.30;;;1.20;;
545;SDS011;259;53.304;9.816;2022-11-09T05:40:01;0.87;;;0.87;;
545;SDS011;259;53.304;9.816;2022-11-09T05:42:27;0.80;;;0.80;;
545;SDS011;259;53.304;9.816;2022-11-09T05:44:52;0.90;;;0.90;;
545;SDS011;259;53.304;9.816;2022-11-09T05:47:19;0.93;;;0.93;;
545;SDS011;259;53.304;9.816;2022-11-09T05:49:45;1.37;;;1.27;;
545;SDS011;259;53.304;9.816;2022-11-09T05:52:11;0.97;;;0.80;;
545;SDS011;259;53.304;9.816;2022-11-09T05:54:37;1.10;;;1.10;;
545;SDS011;259;53.304;9.816;2022-11-09T05:57:02;1.00;;;1.00;;
545;SDS011;259;53.304;9.816;2022-11-09T05:59:28;1.93;;;1.10;;
545;SDS011;259;53.304;9.816;2022-11-09T06:01:54;1.50;;;1.40;;
545;SDS011;259;53.304;9.816;2022-11-09T06:04:19;0.97;;;0.97;;
545;SDS011;259;53.304;9.816;2022-11-09T06:06:45;1.13;;;1.00;;
545;SDS011;259;53.304;9.816;2022-11-09T06:09:10;1.10;;;1.00;;
545;SDS011;259;53.304;9.816;2022-11-09T06:11:36;1.20;;;1.10;;
545;SDS011;259;53.304;9.816;2022-11-09T06:14:02;0.90;;;0.90;;
545;SDS011;259;53.304;9.816;2022-11-09T06:16:27;1.80;;;1.10;;
545;SDS011;259;53.304;9.816;2022-11-09T06:18:53;1.20;;;1.10;;
545;SDS011;259;53.304;9.816;2022-11-09T06:21:19;0.77;;;0.77;;
545;SDS011;259;53.304;9.816;2022-11-09T06:23:44;1.03;;;1.00;;
545;SDS011;259;53.304;9.816;2022-11-09T06:26:10;0.80;;;0.80;;
545;SDS011;259;53.304;9.816;2022-11-09T06:28:39;1.20;;;1.10;;
545;SDS011;259;53.304;9.816;2022-11-09T06:31:09;1.30;;;1.20;;
545;SDS011;259;53.304;9.816;2022-11-09T06:33:36;1.10;;;0.93;;
545;SDS011;259;53.304;9.816;2022-11-09T06:36:02;1.10;;;1.00;;
545;SDS011;259;53.304;9.816;2022-11-09T06:38:28;1.33;;;1.17;;
545;SDS011;259;53.304;9.816;2022-11-09T06:40:54;1.00;;;1.00;;
545;SDS011;259;53.304;9.816;2022-11-09T06:43:21;0.93;;;0.93;;
545;SDS011;259;53.304;9.816;2022-11-09T06:45:48;3.33;;;1.10;;
545;SDS011;259;53.304;9.816;2022-11-09T06:48:13;6.30;;;1.80;;
545;SDS011;259;53.304;9.816;2022-11-09T06:50:39;5.60;;;1.87;;
545;SDS011;259;53.304;9.816;2022-11-09T06:53:06;10.63;;;2.90;;
545;SDS011;259;53.304;9.816;2022-11-09T06:55:34;4.80;;;1.57;;
545;SDS011;259;53.304;9.816;2022-11-09T06:58:04;7.53;;;1.90;;
545;SDS011;259;53.304;9.816;2022-11-09T07:00:31;5.40;;;2.23;;
545;SDS011;259;53.304;9.816;2022-11-09T07:02:57;8.43;;;2.20;;
545;SDS011;259;53.304;9.816;2022-11-09T07:05:22;15.37;;;3.27;;
545;SDS011;259;53.304;9.816;2022-11-09T07:07:48;15.03;;;2.53;;
545;SDS011;259;53.304;9.816;2022-11-09T07:10:14;5.93;;;2.80;;
545;SDS011;259;53.304;9.816;2022-11-09T07:12:40;8.63;;;2.10;;
545;SDS011;259;53.304;9.816;2022-11-09T07:15:06;7.00;;;1.80;;
545;SDS011;259;53.304;9.816;2022-11-09T07:17:32;5.90;;;1.57;;
545;SDS011;259;53.304;9.816;2022-11-09T07:19:59;5.60;;;2.03;;
545;SDS011;259;53.304;9.816;2022-11-09T07:22:28;2.60;;;1.47;;
545;SDS011;259;53.304;9.816;2022-11-09T07:24:53;5.80;;;1.60;;
545;SDS011;259;53.304;9.816;2022-11-09T07:27:19;3.73;;;1.40;;
545;SDS011;259;53.304;9.816;2022-11-09T07:29:46;5.47;;;1.60;;
545;SDS011;259;53.304;9.816;2022-11-09T07:32:11;4.97;;;1.53;;
545;SDS011;259;53.304;9.816;2022-11-09T07:34:37;3.63;;;1.27;;
545;SDS011;259;53.304;9.816;2022-11-09T07:37:02;4.70;;;1.93;;
545;SDS011;259;53.304;9.816;2022-11-09T07:39:28;3.40;;;1.50;;
545;SDS011;259;53.304;9.816;2022-11-09T07:41:54;3.10;;;1.50;;
545;SDS011;259;53.304;9.816;2022-11-09T07:44:20;3.50;;;1.17;;
545;SDS011;259;53.304;9.816;2022-11-09T07:46:45;4.70;;;1.40;;
545;SDS011;259;53.304;9.816;2022-11-09T07:49:12;3.40;;;1.70;;
545;SDS011;259;53.304;9.816;2022-11-09T07:51:39;7.10;;;1.70;;
545;SDS011;259;53.304;9.816;2022-11-09T07:54:04;1.13;;;1.03;;
545;SDS011;259;53.304;9.816;2022-11-09T07:56:30;2.93;;;1.40;;
545;SDS011;259;53.304;9.816;2022-11-09T07:58:56;7.77;;;1.20;;
545;SDS011;259;53.304;9.816;2022-11-09T08:01:21;5.17;;;1.70;;
545;SDS011;259;53.304;9.816;2022-11-09T08:03:47;4.77;;;1.30;;
545;SDS011;259;53.304;9.816;2022-11-09T08:06:12;2.10;;;1.33;;
545;SDS011;259;53.304;9.816;2022-11-09T08:08:38;2.73;;;1.27;;
545;SDS011;259;53.304;9.816;2022-11-09T08:11:03;3.20;;;1.50;;
545;SDS011;259;53.304;9.816;2022-11-09T08:13:29;2.60;;;1.30;;
545;SDS011;259;53.304;9.816;2022-11-09T08:15:55;1.90;;;1.00;;
545;SDS011;259;53.304;9.816;2022-11-09T08:18:20;2.60;;;1.33;;
545;SDS011;259;53.304;9.816;2022-11-09T08:20:47;3.27;;;1.53;;
545;SDS011;259;53.304;9.816;2022-11-09T08:23:14;2.07;;;1.10;;
545;SDS011;259;53.304;9.816;2022-11-09T08:25:41;2.33;;;1.30;;
545;SDS011;259;53.304;9.816;2022-11-09T08:28:07;4.20;;;1.10;;
545;SDS011;259;53.304;9.816;2022-11-09T08:30:32;3.00;;;1.60;;
545;SDS011;259;53.304;9.816;2022-11-09T08:32:59;3.03;;;1.40;;
545;SDS011;259;53.304;9.816;2022-11-09T08:35:26;1.43;;;1.33;;
545;SDS011;259;53.304;9.816;2022-11-09T08:37:52;1.27;;;1.13;;
545;SDS011;259;53.304;9.816;2022-11-09T08:40:19;2.93;;;1.10;;
545;SDS011;259;53.304;9.816;2022-11-09T08:42:46;1.47;;;1.03;;
545;SDS011;259;53.304;9.816;2022-11-09T08:45:12;1.93;;;1.00;;
545;SDS011;259;53.304;9.816;2022-11-09T08:47:38;1.43;;;1.33;;
545;SDS011;259;53.304;9.816;2022-11-09T08:50:05;2.10;;;1.20;;
545;SDS011;259;53.304;9.816;2022-11-09T08:52:31;1.50;;;1.10;;
545;SDS011;259;53.304;9.816;2022-11-09T08:54:57;1.97;;;1.10;;
545;SDS011;259;53.304;9.816;2022-11-09T08:57:23;1.40;;;1.30;;
545;SDS011;259;53.304;9.816;2022-11-09T08:59:49;2.30;;;1.40;;
545;SDS011;259;53.304;9.816;2022-11-09T09:02:15;1.50;;;1.07;;
545;SDS011;259;53.304;9.816;2022-11-09T09:04:40;2.13;;;1.30;;
545;SDS011;259;53.304;9.816;2022-11-09T09:07:06;1.20;;;1.10;;
545;SDS011;259;53.304;9.816;2022-11-09T09:09:32;1.43;;;0.97;;
545;SDS011;259;53.304;9.816;2022-11-09T09:11:58;3.40;;;1.30;;
545;SDS011;259;53.304;9.816;2022-11-09T09:14:24;1.70;;;0.97;;
545;SDS011;259;53.304;9.816;2022-11-09T09:16:50;2.70;;;1.33;;
545;SDS011;259;53.304;9.816;2022-11-09T09:19:16;2.23;;;1.30;;
545;SDS011;259;53.304;9.816;2022-11-09T09:21:42;1.43;;;1.33;;
545;SDS011;259;53.304;9.816;2022-11-09T09:24:07;1.83;;;1.20;;
545;SDS011;259;53.304;9.816;2022-11-09T09:26:33;1.43;;;1.00;;
545;SDS011;259;53.304;9.816;2022-11-09T09:28:59;2.03;;;1.20;;
545;SDS011;259;53.304;9.816;2022-11-09T09:31:24;1.40;;;1.30;;
545;SDS011;259;53.304;9.816;2022-11-09T09:33:50;2.30;;;1.07;;
545;SDS011;259;53.304;9.816;2022-11-09T09:36:17;3.63;;;1.27;;
545;SDS011;259;53.304;9.816;2022-11-09T09:38:49;3.13;;;1.60;;
545;SDS011;259;53.304;9.816;2022-11-09T09:43:53;3.03;;;1.27;;
545;SDS011;259;53.304;9.816;2022-11-09T09:48:52;2.13;;;1.50;;
545;SDS011;259;53.304;9.816;2022-11-09T09:51:32;1.73;;;1.57;;
545;SDS011;259;53.304;9.816;2022-11-09T09:54:10;4.03;;;1.47;;
545;SDS011;259;53.304;9.816;2022-11-09T09:56:42;1.93;;;1.60;;
545;SDS011;259;53.304;9.816;2022-11-09T10:01:59;3.93;;;1.60;;
545;SDS011;259;53.304;9.816;2022-11-09T10:04:31;3.53;;;1.30;;
545;SDS011;259;53.304;9.816;2022-11-09T10:07:12;2.67;;;1.40;;
545;SDS011;259;53.304;9.816;2022-11-09T10:15:29;2.90;;;1.40;;
545;SDS011;259;53.304;9.816;2022-11-09T10:21:08;4.50;;;2.23;;
545;SDS011;259;53.304;9.816;2022-11-09T10:26:22;9.50;;;2.20;;
545;SDS011;259;53.304;9.816;2022-11-09T10:29:14;17.73;;;3.53;;
545;SDS011;259;53.304;9.816;2022-11-09T10:31:44;26.80;;;3.03;;
545;SDS011;259;53.304;9.816;2022-11-09T10:34:15;8.83;;;3.23;;
545;SDS011;259;53.304;9.816;2022-11-09T10:39:21;18.03;;;3.07;;
545;SDS011;259;53.304;9.816;2022-11-09T10:41:49;18.60;;;3.67;;
545;SDS011;259;53.304;9.816;2022-11-09T10:44:17;10.80;;;2.60;;
545;SDS011;259;53.304;9.816;2022-11-09T10:47:02;19.07;;;2.90;;
545;SDS011;259;53.304;9.816;2022-11-09T10:49:30;16.27;;;3.50;;
545;SDS011;259;53.304;9.816;2022-11-09T10:51:58;18.20;;;3.50;;
545;SDS011;259;53.304;9.816;2022-11-09T10:57:00;16.67;;;3.30;;
545;SDS011;259;53.304;9.816;2022-11-09T11:04:48;22.03;;;3.30;;
545;SDS011;259;53.304;9.816;2022-11-09T11:07:17;13.37;;;3.00;;
545;SDS011;259;53.304;9.816;2022-11-09T11:09:44;11.80;;;3.97;;
545;SDS011;259;53.304;9.816;2022-11-09T11:12:14;21.67;;;3.40;;
545;SDS011;259;53.304;9.816;2022-11-09T11:14:43;12.63;;;3.40;;
545;SDS011;259;53.304;9.816;2022-11-09T11:19:50;17.10;;;3.50;;
545;SDS011;259;53.304;9.816;2022-11-09T11:22:17;24.60;;;4.13;;
545;SDS011;259;53.304;9.816;2022-11-09T11:24:57;9.67;;;2.97;;
545;SDS011;259;53.304;9.816;2022-11-09T11:27:35;4.10;;;2.43;;
545;SDS011;259;53.304;9.816;2022-11-09T11:30:33;6.77;;;2.13;;
545;SDS011;259;53.304;9.816;2022-11-09T11:33:03;9.70;;;2.47;;
545;SDS011;259;53.304;9.816;2022-11-09T11:36:05;4.93;;;1.80;;
545;SDS011;259;53.304;9.816;2022-11-09T11:44:07;5.37;;;2.20;;
545;SDS011;259;53.304;9.816;2022-11-09T11:55:50;4.43;;;2.40;;
545;SDS011;259;53.304;9.816;2022-11-09T12:01:42;6.10;;;2.50;;
545;SDS011;259;53.304;9.816;2022-11-09T12:10:41;3.43;;;2.30;;
545;SDS011;259;53.304;9.816;2022-11-09T12:13:20;2.10;;;1.80;;
545;SDS011;259;53.304;9.816;2022-11-09T12:18:33;7.60;;;2.93;;
545;SDS011;259;53.304;9.816;2022-11-09T12:26:49;3.40;;;2.07;;
545;SDS011;259;53.304;9.816;2022-11-09T12:29:59;2.40;;;1.87;;
545;SDS011;259;53.304;9.816;2022-11-09T12:35:50;8.47;;;2.90;;
545;SDS011;259;53.304;9.816;2022-11-09T12:38:16;11.07;;;3.00;;
545;SDS011;259;53.304;9.816;2022-11-09T12:41:00;22.60;;;3.57;;
545;SDS011;259;53.304;9.816;2022-11-09T12:46:03;7.27;;;2.60;;
545;SDS011;259;53.304;9.816;2022-11-09T12:48:33;7.00;;;2.53;;
545;SDS011;259;53.304;9.816;2022-11-09T12:50:59;12.87;;;3.03;;
545;SDS011;259;53.304;9.816;2022-11-09T12:53:31;10.27;;;2.73;;
545;SDS011;259;53.304;9.816;2022-11-09T12:56:04;6.20;;;2.67;;
545;SDS011;259;53.304;9.816;2022-11-09T12:58:35;6.40;;;2.60;;
545;SDS011;259;53.304;9.816;2022-11-09T13:01:04;6.43;;;2.23;;
545;SDS011;259;53.304;9.816;2022-11-09T13:03:36;6.87;;;2.37;;
545;SDS011;259;53.304;9.816;2022-11-09T13:06:23;3.63;;;2.40;;
545;SDS011;259;53.304;9.816;2022-11-09T13:09:36;8.23;;;2.20;;
545;SDS011;259;53.304;9.816;2022-11-09T13:24:59;3.80;;;1.73;;
545;SDS011;259;53.304;9.816;2022-11-09T13:29:58;4.50;;;2.03;;
545;SDS011;259;53.304;9.816;2022-11-09T13:32:30;11.47;;;2.43;;
545;SDS011;259;53.304;9.816;2022-11-09T13:34:58;9.23;;;2.37;;
545;SDS011;259;53.304;9.816;2022-11-09T13:42:59;9.93;;;2.10;;
545;SDS011;259;53.304;9.816;2022-11-09T13:48:01;15.10;;;2.53;;
545;SDS011;259;53.304;9.816;2022-11-09T13:50:29;7.83;;;2.40;;
545;SDS011;259;53.304;9.816;2022-11-09T13:52:57;8.57;;;2.27;;
545;SDS011;259;53.304;9.816;2022-11-09T13:55:31;6.10;;;1.93;;
545;SDS011;259;53.304;9.816;2022-11-09T14:01:04;4.57;;;2.03;;
545;SDS011;259;53.304;9.816;2022-11-09T14:03:29;4.67;;;2.13;;
545;SDS011;259;53.304;9.816;2022-11-09T14:05:59;5.90;;;1.70;;
545;SDS011;259;53.304;9.816;2022-11-09T14:08:27;5.97;;;1.60;;
545;SDS011;259;53.304;9.816;2022-11-09T14:16:27;9.50;;;2.40;;
545;SDS011;259;53.304;9.816;2022-11-09T14:18:59;3.90;;;2.10;;
545;SDS011;259;53.304;9.816;2022-11-09T14:21:47;4.13;;;1.70;;
545;SDS011;259;53.304;9.816;2022-11-09T14:24:17;9.33;;;2.83;;
545;SDS011;259;53.304;9.816;2022-11-09T14:29:34;4.97;;;2.70;;
545;SDS011;259;53.304;9.816;2022-11-09T14:34:52;7.13;;;2.20;;
545;SDS011;259;53.304;9.816;2022-11-09T14:37:33;5.70;;;2.27;;
545;SDS011;259;53.304;9.816;2022-11-09T14:40:00;4.30;;;2.30;;
545;SDS011;259;53.304;9.816;2022-11-09T14:42:26;3.37;;;2.50;;
545;SDS011;259;53.304;9.816;2022-11-09T14:44:51;5.40;;;2.20;;
545;SDS011;259;53.304;9.816;2022-11-09T14:47:18;7.83;;;2.10;;
545;SDS011;259;53.304;9.816;2022-11-09T14:49:53;26.73;;;3.87;;
545;SDS011;259;53.304;9.816;2022-11-09T14:52:19;12.80;;;3.40;;
545;SDS011;259;53.304;9.816;2022-11-09T14:54:53;20.67;;;4.43;;
545;SDS011;259;53.304;9.816;2022-11-09T14:57:20;11.93;;;3.30;;
545;SDS011;259;53.304;9.816;2022-11-09T14:59:47;14.03;;;3.40;;
545;SDS011;259;53.304;9.816;2022-11-09T15:02:19;15.50;;;4.37;;
545;SDS011;259;53.304;9.816;2022-11-09T15:04:52;8.93;;;3.27;;
545;SDS011;259;53.304;9.816;2022-11-09T15:07:32;11.20;;;3.23;;
545;SDS011;259;53.304;9.816;2022-11-09T15:09:59;12.73;;;3.20;;
545;SDS011;259;53.304;9.816;2022-11-09T15:12:31;11.73;;;3.40;;
545;SDS011;259;53.304;9.816;2022-11-09T15:14:58;19.53;;;3.57;;
545;SDS011;259;53.304;9.816;2022-11-09T15:17:29;12.33;;;3.80;;
545;SDS011;259;53.304;9.816;2022-11-09T15:20:02;13.67;;;2.93;;
545;SDS011;259;53.304;9.816;2022-11-09T15:27:56;13.93;;;3.63;;
545;SDS011;259;53.304;9.816;2022-11-09T15:30:39;16.37;;;4.43;;
545;SDS011;259;53.304;9.816;2022-11-09T15:36:00;11.83;;;2.77;;
545;SDS011;259;53.304;9.816;2022-11-09T15:38:33;8.77;;;2.60;;
545;SDS011;259;53.304;9.816;2022-11-09T15:41:10;5.13;;;2.63;;
545;SDS011;259;53.304;9.816;2022-11-09T15:43:41;9.48;;;2.72;;
545;SDS011;259;53.304;9.816;2022-11-09T15:46:10;10.90;;;3.07;;
545;SDS011;259;53.304;9.816;2022-11-09T15:48:40;9.13;;;3.57;;
545;SDS011;259;53.304;9.816;2022-11-09T15:51:06;9.73;;;2.50;;
545;SDS011;259;53.304;9.816;2022-11-09T15:53:32;15.47;;;3.37;;
545;SDS011;259;53.304;9.816;2022-11-09T15:55:58;15.67;;;3.47;;
545;SDS011;259;53.304;9.816;2022-11-09T15:58:24;18.03;;;3.90;;
545;SDS011;259;53.304;9.816;2022-11-09T16:00:49;15.30;;;3.30;;
545;SDS011;259;53.304;9.816;2022-11-09T16:03:15;12.20;;;2.90;;
545;SDS011;259;53.304;9.816;2022-11-09T16:05:42;12.50;;;3.60;;
545;SDS011;259;53.304;9.816;2022-11-09T16:08:08;11.30;;;2.67;;
545;SDS011;259;53.304;9.816;2022-11-09T16:10:34;7.70;;;2.70;;
545;SDS011;259;53.304;9.816;2022-11-09T16:13:04;7.97;;;2.40;;
545;SDS011;259;53.304;9.816;2022-11-09T16:15:30;9.83;;;3.20;;
545;SDS011;259;53.304;9.816;2022-11-09T16:17:57;9.53;;;2.90;;
545;SDS011;259;53.304;9.816;2022-11-09T16:20:22;20.53;;;3.80;;
545;SDS011;259;53.304;9.816;2022-11-09T16:22:48;14.27;;;5.90;;
545;SDS011;259;53.304;9.816;2022-11-09T16:25:13;20.27;;;4.40;;
545;SDS011;259;53.304;9.816;2022-11-09T16:27:39;16.67;;;3.73;;
545;SDS011;259;53.304;9.816;2022-11-09T16:30:06;23.27;;;4.10;;
545;SDS011;259;53.304;9.816;2022-11-09T16:32:33;21.40;;;3.30;;
545;SDS011;259;53.304;9.816;2022-11-09T16:35:00;13.37;;;3.27;;
545;SDS011;259;53.304;9.816;2022-11-09T16:37:26;10.70;;;2.20;;
545;SDS011;259;53.304;9.816;2022-11-09T16:39:56;15.47;;;3.00;;
545;SDS011;259;53.304;9.816;2022-11-09T16:42:22;11.23;;;2.83;;
545;SDS011;259;53.304;9.816;2022-11-09T16:44:49;14.33;;;3.60;;
545;SDS011;259;53.304;9.816;2022-11-09T16:47:15;10.50;;;2.73;;
545;SDS011;259;53.304;9.816;2022-11-09T16:49:42;17.10;;;3.03;;
545;SDS011;259;53.304;9.816;2022-11-09T16:52:08;11.43;;;2.57;;
545;SDS011;259;53.304;9.816;2022-11-09T16:54:34;15.20;;;3.30;;
545;SDS011;259;53.304;9.816;2022-11-09T16:57:00;9.40;;;2.60;;
545;SDS011;259;53.304;9.816;2022-11-09T16:59:26;10.00;;;2.40;;
545;SDS011;259;53.304;9.816;2022-11-09T17:01:52;4.90;;;2.03;;
545;SDS011;259;53.304;9.816;2022-11-09T17:04:19;7.30;;;2.73;;
545;SDS011;259;53.304;9.816;2022-11-09T17:06:45;9.43;;;2.13;;
545;SDS011;259;53.304;9.816;2022-11-09T17:09:12;9.17;;;2.70;;
545;SDS011;259;53.304;9.816;2022-11-09T17:11:37;3.60;;;2.00;;
545;SDS011;259;53.304;9.816;2022-11-09T17:14:03;11.23;;;2.70;;
545;SDS011;259;53.304;9.816;2022-11-09T17:16:29;6.50;;;2.13;;
545;SDS011;259;53.304;9.816;2022-11-09T17:18:55;4.30;;;1.80;;
545;SDS011;259;53.304;9.816;2022-11-09T17:21:22;9.03;;;1.60;;
545;SDS011;259;53.304;9.816;2022-11-09T17:23:49;8.20;;;2.10;;
545;SDS011;259;53.304;9.816;2022-11-09T17:26:15;5.37;;;1.83;;
545;SDS011;259;53.304;9.816;2022-11-09T17:28:42;2.70;;;1.77;;
545;SDS011;259;53.304;9.816;2022-11-09T17:31:12;5.07;;;1.77;;
545;SDS011;259;53.304;9.816;2022-11-09T17:33:42;4.43;;;1.27;;
545;SDS011;259;53.304;9.816;2022-11-09T17:36:09;3.53;;;1.50;;
545;SDS011;259;53.304;9.816;2022-11-09T17:38:35;7.50;;;2.03;;
545;SDS011;259;53.304;9.816;2022-11-09T17:41:03;4.67;;;1.83;;
545;SDS011;259;53.304;9.816;2022-11-09T17:43:33;3.23;;;1.47;;
545;SDS011;259;53.304;9.816;2022-11-09T17:46:02;3.30;;;1.53;;
545;SDS011;259;53.304;9.816;2022-11-09T17:48:32;3.80;;;1.20;;